This is the latest recevied weather packets stored in our database for station/object IW0HP-3. If no packets are shown the sender has not sent any weather packets the latest 10 day(s).
| Time | Temp. | Humidity | Pressure | Rain* | Wind** | Luminosity | Snow |
|---|---|---|---|---|---|---|---|
| 1777853060 | 15.56° C | 67% | 1019.8 hPa | - | - | - | - |
| 1777849446 | 16.67° C | 67% | 1020.3 hPa | - | - | - | - |
| 1777848242 | 16.67° C | 66% | 1020.4 hPa | - | - | - | - |
| 1777845832 | 16.67° C | 65% | 1020.4 hPa | - | - | - | - |
| 1777843423 | 17.22° C | 64% | 1020.2 hPa | - | - | - | - |
| 1777842218 | 17.22° C | 64% | 1020 hPa | - | - | - | - |
| 1777841013 | 17.22° C | 63% | 1020.1 hPa | - | - | - | - |
| 1777839808 | 17.78° C | 63% | 1020 hPa | - | - | - | - |
| 1777838603 | 17.78° C | 62% | 1019.9 hPa | - | - | - | - |
| 1777834989 | 18.33° C | 60% | 1019.2 hPa | - | - | - | - |
| 1777833784 | 18.33° C | 58% | 1019 hPa | - | - | - | - |
| 1777832579 | 19.44° C | 53% | 1018.5 hPa | - | - | - | - |
| 1777831374 | 20.56° C | 48% | 1018.3 hPa | - | - | - | - |
| 1777830169 | 22.78° C | 42% | 1018.3 hPa | - | - | - | - |
| 1777828962 | 26.67° C | 36% | 1018.6 hPa | - | - | - | - |
| 1777827757 | 23.33° C | 42% | 1018 hPa | - | - | - | - |
| 1777826552 | 21.67° C | 42% | 1017.9 hPa | - | - | - | - |
| 1777825347 | 21.67° C | 42% | 1018 hPa | - | - | - | - |
| 1777824140 | 21.67° C | 40% | 1018.2 hPa | - | - | - | - |
| 1777822935 | 21.67° C | 41% | 1018.1 hPa | - | - | - | - |
| 1777821730 | 22.22° C | 41% | 1018.5 hPa | - | - | - | - |
| 1777820526 | 21.67° C | 40% | 1019 hPa | - | - | - | - |
| 1777818116 | 21.11° C | 41% | 1019.5 hPa | - | - | - | - |
| 1777816911 | 21.11° C | 38% | 1019.8 hPa | - | - | - | - |
| 1777814502 | 21.11° C | 39% | 1020.1 hPa | - | - | - | - |
* Rain since midnight (hover to see other rain measurements)
** Current wind speed in m/s (hover to see current wind gust speed)